createdAt,value
2017-09-04T00:00:35.868Z,0
2017-09-04T00:01:36.088Z,0
2017-09-04T00:02:35.791Z,0
2017-09-04T00:03:36.129Z,0
2017-09-04T00:04:36.471Z,0
2017-09-04T00:05:36.493Z,0
2017-09-04T00:06:36.190Z,0
2017-09-04T00:07:36.207Z,0
2017-09-04T00:08:35.903Z,0
2017-09-04T00:09:35.925Z,0
2017-09-04T00:10:36.274Z,0
2017-09-04T00:11:36.611Z,0
2017-09-04T00:12:36.638Z,0
2017-09-04T00:13:35.691Z,0
2017-09-04T00:14:36.659Z,0
2017-09-04T00:15:36.358Z,0
2017-09-04T00:16:36.396Z,0
2017-09-04T00:17:36.073Z,0
2017-09-04T00:18:36.414Z,0
2017-09-04T00:19:36.434Z,0
2017-09-04T00:20:36.455Z,0
2017-09-04T00:21:36.802Z,0
2017-09-04T00:22:36.497Z,0
2017-09-04T00:23:36.838Z,0
2017-09-04T00:24:36.531Z,0
2017-09-04T00:25:36.231Z,0
2017-09-04T00:26:36.894Z,0
2017-09-04T00:27:36.594Z,0
2017-09-04T00:28:36.673Z,0
2017-09-04T00:29:36.313Z,0
2017-09-04T00:30:36.974Z,0
2017-09-04T00:31:36.679Z,0
2017-09-04T00:32:36.691Z,0
2017-09-04T00:33:36.718Z,0
2017-09-04T00:34:36.415Z,0
2017-09-04T00:35:36.754Z,0
2017-09-04T00:36:36.777Z,0
2017-09-04T00:37:37.118Z,0
2017-09-04T00:38:36.489Z,0
2017-09-04T00:39:36.508Z,0
2017-09-04T00:40:36.207Z,0
2017-09-04T00:41:36.965Z,0
2017-09-04T00:42:36.579Z,0
2017-09-04T00:43:36.597Z,0
2017-09-04T00:44:36.622Z,0
2017-09-04T00:45:36.308Z,0
2017-09-04T00:46:36.649Z,0
2017-09-04T00:47:36.989Z,0
2017-09-04T00:48:37.425Z,0
2017-09-04T00:49:37.034Z,0
2017-09-04T00:50:36.728Z,0
2017-09-04T00:51:37.185Z,0
2017-09-04T00:52:37.502Z,0
2017-09-04T00:53:36.889Z,0
2017-09-04T00:54:37.194Z,0
2017-09-04T00:55:37.006Z,0
2017-09-04T00:56:37.008Z,0
2017-09-04T00:57:36.541Z,0
2017-09-04T00:58:37.324Z,0
2017-09-04T00:59:36.923Z,0
2017-09-04T01:00:37.666Z,0
2017-09-04T01:01:36.625Z,0
2017-09-04T01:02:37.801Z,0
2017-09-04T01:03:37.049Z,0
2017-09-04T01:04:37.482Z,0
2017-09-04T01:05:37.502Z,0
2017-09-04T01:06:37.496Z,0
2017-09-04T01:07:37.151Z,0
2017-09-04T01:08:37.173Z,0
2017-09-04T01:09:37.191Z,0
2017-09-04T01:10:37.875Z,0
2017-09-04T01:11:37.371Z,0
2017-09-04T01:12:37.362Z,0
2017-09-04T01:13:37.888Z,0
2017-09-04T01:14:37.561Z,0
2017-09-04T01:15:37.672Z,0
2017-09-04T01:16:37.680Z,0
2017-09-04T01:17:37.362Z,0
2017-09-04T01:18:37.597Z,0
2017-09-04T01:19:37.173Z,0
2017-09-04T01:20:37.962Z,0
2017-09-04T01:21:37.177Z,0
2017-09-04T01:22:37.505Z,0
2017-09-04T01:23:38.021Z,0
2017-09-04T01:24:38.040Z,0
2017-09-04T01:25:37.734Z,0
2017-09-04T01:26:37.433Z,0
2017-09-04T01:27:37.451Z,0
2017-09-04T01:28:37.774Z,0
2017-09-04T01:29:37.488Z,0
2017-09-04T01:30:37.828Z,0
2017-09-04T01:31:37.854Z,0
2017-09-04T01:32:37.917Z,0
2017-09-04T01:33:37.579Z,0
2017-09-04T01:34:37.909Z,0
2017-09-04T01:35:37.603Z,0
2017-09-04T01:36:38.273Z,0
2017-09-04T01:37:37.965Z,0
2017-09-04T01:38:37.341Z,0
2017-09-04T01:39:37.688Z,0
2017-09-04T01:40:37.380Z,0
2017-09-04T01:41:38.369Z,0
2017-09-04T01:42:38.062Z,0
2017-09-04T01:43:38.079Z,0
2017-09-04T01:44:37.455Z,0
2017-09-04T01:45:38.117Z,0
2017-09-04T01:46:37.824Z,0
2017-09-04T01:47:38.163Z,0
2017-09-04T01:48:38.186Z,0
2017-09-04T01:49:38.203Z,0
2017-09-04T01:50:37.898Z,0
2017-09-04T01:51:38.564Z,0
2017-09-04T01:52:38.582Z,0
2017-09-04T01:53:38.288Z,0
2017-09-04T01:54:37.978Z,0
2017-09-04T01:55:37.997Z,0
2017-09-04T01:56:38.015Z,0
2017-09-04T01:57:38.673Z,0
2017-09-04T01:58:38.611Z,0
2017-09-04T01:59:37.753Z,0
2017-09-04T02:00:37.769Z,0
2017-09-04T02:01:38.446Z,0
2017-09-04T02:02:38.127Z,0
2017-09-04T02:03:38.147Z,0
2017-09-04T02:04:38.813Z,0
2017-09-04T02:05:38.184Z,0
2017-09-04T02:06:38.211Z,0
2017-09-04T02:07:38.546Z,0
2017-09-04T02:08:38.566Z,0
2017-09-04T02:09:38.261Z,0
2017-09-04T02:10:38.280Z,0
2017-09-04T02:11:38.620Z,0
2017-09-04T02:12:38.970Z,0
2017-09-04T02:13:38.340Z,0
2017-09-04T02:14:38.359Z,0
2017-09-04T02:15:38.393Z,0
2017-09-04T02:16:38.399Z,0
2017-09-04T02:17:38.742Z,0
2017-09-04T02:18:38.431Z,0
2017-09-04T02:19:38.453Z,0
2017-09-04T02:20:39.124Z,0
2017-09-04T02:21:38.495Z,0
2017-09-04T02:22:38.193Z,0
2017-09-04T02:23:38.529Z,0
2017-09-04T02:24:38.871Z,0
2017-09-04T02:25:38.568Z,0
2017-09-04T02:26:39.230Z,0
2017-09-04T02:27:39.256Z,0
2017-09-04T02:28:38.950Z,0
2017-09-04T02:29:39.293Z,0
2017-09-04T02:30:38.986Z,0
2017-09-04T02:31:38.690Z,0
2017-09-04T02:32:39.020Z,0
2017-09-04T02:33:38.719Z,0
2017-09-04T02:34:39.061Z,0
2017-09-04T02:35:39.142Z,0
2017-09-04T02:36:39.100Z,0
2017-09-04T02:37:38.798Z,0
2017-09-04T02:38:38.499Z,0
2017-09-04T02:39:38.951Z,0
2017-09-04T02:40:38.534Z,0
2017-09-04T02:41:39.594Z,0
2017-09-04T02:42:39.219Z,0
2017-09-04T02:43:38.914Z,0
2017-09-04T02:44:38.932Z,0
2017-09-04T02:45:39.593Z,0
2017-09-04T02:46:39.080Z,0
2017-09-04T02:47:39.671Z,0
2017-09-04T02:48:39.440Z,0
2017-09-04T02:49:39.352Z,0
2017-09-04T02:50:39.823Z,0
2017-09-04T02:51:39.829Z,0
2017-09-04T02:52:38.853Z,0
2017-09-04T02:53:39.511Z,0
2017-09-04T02:54:39.209Z,0
2017-09-04T02:55:39.255Z,0
2017-09-04T02:56:39.567Z,0
2017-09-04T02:57:39.090Z,0
2017-09-04T02:58:39.088Z,0
2017-09-04T02:59:39.808Z,0
2017-09-04T03:00:39.722Z,0
2017-09-04T03:01:40.040Z,0
2017-09-04T03:02:39.714Z,0
2017-09-04T03:03:39.404Z,0
2017-09-04T03:04:39.428Z,0
2017-09-04T03:05:39.546Z,0
2017-09-04T03:06:39.869Z,0
2017-09-04T03:07:39.545Z,0
2017-09-04T03:08:39.545Z,0
2017-09-04T03:09:40.175Z,0
2017-09-04T03:10:40.189Z,0
2017-09-04T03:11:39.836Z,0
2017-09-04T03:12:39.512Z,0
2017-09-04T03:13:39.830Z,0
2017-09-04T03:14:39.510Z,0
2017-09-04T03:15:39.525Z,0
2017-09-04T03:16:39.537Z,0
2017-09-04T03:17:39.561Z,0
2017-09-04T03:18:39.581Z,0
2017-09-04T03:19:39.593Z,0
2017-09-04T03:20:40.263Z,0
2017-09-04T03:21:39.632Z,0
2017-09-04T03:22:39.659Z,0
2017-09-04T03:23:40.315Z,0
2017-09-04T03:24:40.337Z,0
2017-09-04T03:25:39.712Z,0
2017-09-04T03:26:39.728Z,0
2017-09-04T03:27:40.387Z,0
2017-09-04T03:28:40.410Z,0
2017-09-04T03:29:40.105Z,0
2017-09-04T03:30:40.130Z,0
2017-09-04T03:31:40.467Z,0
2017-09-04T03:32:39.848Z,0
2017-09-04T03:33:39.862Z,0
2017-09-04T03:34:39.880Z,0
2017-09-04T03:35:39.898Z,0
2017-09-04T03:36:40.559Z,0
2017-09-04T03:37:39.932Z,0
2017-09-04T03:38:40.285Z,0
2017-09-04T03:39:40.621Z,0
2017-09-04T03:40:40.325Z,0
2017-09-04T03:41:40.012Z,0
2017-09-04T03:42:40.036Z,0
2017-09-04T03:43:40.368Z,0
2017-09-04T03:44:40.386Z,0
2017-09-04T03:45:40.097Z,0
2017-09-04T03:46:40.104Z,0
2017-09-04T03:47:40.439Z,0
2017-09-04T03:48:40.140Z,0
2017-09-04T03:49:39.841Z,0
2017-09-04T03:50:39.854Z,0
2017-09-04T03:51:40.517Z,0
2017-09-04T03:52:40.866Z,0
2017-09-04T03:53:40.885Z,0
2017-09-04T03:54:40.259Z,0
2017-09-04T03:55:40.270Z,0
2017-09-04T03:56:40.293Z,0
2017-09-04T03:57:39.989Z,0
2017-09-04T03:58:40.978Z,0
2017-09-04T03:59:40.393Z,0
2017-09-04T04:00:40.694Z,0
2017-09-04T04:01:40.703Z,0
2017-09-04T04:02:40.727Z,0
2017-09-04T04:03:40.738Z,0
2017-09-04T04:04:40.437Z,0
2017-09-04T04:05:40.462Z,0
2017-09-04T04:06:40.474Z,0
2017-09-04T04:07:40.494Z,0
2017-09-04T04:08:40.189Z,0
2017-09-04T04:09:40.537Z,0
2017-09-04T04:10:41.197Z,0
2017-09-04T04:11:40.570Z,0
2017-09-04T04:12:40.592Z,0
2017-09-04T04:13:40.940Z,4
2017-09-04T04:14:40.305Z,4
2017-09-04T04:15:40.969Z,4
2017-09-04T04:16:40.988Z,4
2017-09-04T04:17:40.689Z,4
2017-09-04T04:18:41.028Z,8
2017-09-04T04:19:40.721Z,4
2017-09-04T04:20:40.738Z,8
2017-09-04T04:21:40.434Z,8
2017-09-04T04:22:40.795Z,8
2017-09-04T04:23:40.824Z,12
2017-09-04T04:24:41.134Z,12
2017-09-04T04:25:41.152Z,16
2017-09-04T04:26:40.850Z,16
2017-09-04T04:27:40.543Z,16
2017-09-04T04:28:40.885Z,20
2017-09-04T04:29:41.227Z,20
2017-09-04T04:30:40.922Z,24
2017-09-04T04:31:41.269Z,24
2017-09-04T04:32:41.284Z,28
2017-09-04T04:33:41.299Z,32
2017-09-04T04:34:41.643Z,36
2017-09-04T04:35:41.350Z,36
2017-09-04T04:36:41.361Z,40
2017-09-04T04:37:41.088Z,40
2017-09-04T04:38:41.391Z,48
2017-09-04T04:39:41.414Z,48
2017-09-04T04:40:41.112Z,56
2017-09-04T04:41:41.123Z,56
2017-09-04T04:42:41.148Z,60
2017-09-04T04:43:41.185Z,68
2017-09-04T04:44:41.189Z,68
2017-09-04T04:45:41.523Z,76
2017-09-04T04:46:41.217Z,76
2017-09-04T04:47:41.236Z,80
2017-09-04T04:48:41.257Z,88
2017-09-04T04:49:41.597Z,88
2017-09-04T04:50:40.972Z,92
2017-09-04T04:51:41.963Z,96
2017-09-04T04:52:41.334Z,104
2017-09-04T04:53:41.688Z,104
2017-09-04T04:54:42.011Z,108
2017-09-04T04:55:41.718Z,112
2017-09-04T04:56:41.406Z,116
2017-09-04T04:57:41.106Z,120
2017-09-04T04:58:41.769Z,124
2017-09-04T04:59:41.787Z,124
2017-09-04T05:00:42.134Z,128
2017-09-04T05:01:41.499Z,132
2017-09-04T05:02:41.192Z,140
2017-09-04T05:03:41.970Z,144
2017-09-04T05:04:41.882Z,144
2017-09-04T05:05:42.316Z,148
2017-09-04T05:06:42.341Z,152
2017-09-04T05:07:41.286Z,156
2017-09-04T05:08:41.317Z,160
2017-09-04T05:09:41.973Z,160
2017-09-04T05:10:41.668Z,164
2017-09-04T05:11:41.688Z,164
2017-09-04T05:12:42.020Z,168
2017-09-04T05:13:41.723Z,176
2017-09-04T05:14:41.416Z,176
2017-09-04T05:15:42.081Z,180
2017-09-04T05:16:41.772Z,180
2017-09-04T05:17:41.800Z,188
2017-09-04T05:18:42.507Z,188
2017-09-04T05:19:41.505Z,192
2017-09-04T05:20:42.179Z,192
2017-09-04T05:21:42.189Z,196
2017-09-04T05:22:42.327Z,196
2017-09-04T05:23:42.324Z,204
2017-09-04T05:24:41.931Z,204
2017-09-04T05:25:42.659Z,204
2017-09-04T05:26:42.659Z,212
2017-09-04T05:27:42.656Z,212
2017-09-04T05:28:42.357Z,212
2017-09-04T05:29:42.008Z,216
2017-09-04T05:30:42.360Z,216
2017-09-04T05:31:42.369Z,220
2017-09-04T05:32:42.066Z,224
2017-09-04T05:33:42.089Z,224
2017-09-04T05:34:42.752Z,228
2017-09-04T05:35:42.517Z,232
2017-09-04T05:36:42.516Z,232
2017-09-04T05:37:42.800Z,232
2017-09-04T05:38:42.176Z,236
2017-09-04T05:39:42.846Z,240
2017-09-04T05:40:42.634Z,240
2017-09-04T05:41:42.874Z,244
2017-09-04T05:42:42.659Z,244
2017-09-04T05:43:42.670Z,244
2017-09-04T05:44:42.667Z,248
2017-09-04T05:45:42.664Z,248
2017-09-04T05:46:42.637Z,248
2017-09-04T05:47:42.667Z,256
2017-09-04T05:48:43.002Z,256
2017-09-04T05:49:43.026Z,256
2017-09-04T05:50:42.717Z,260
2017-09-04T05:51:42.096Z,260
2017-09-04T05:52:43.077Z,260
2017-09-04T05:53:42.525Z,264
2017-09-04T05:54:42.524Z,268
2017-09-04T05:55:42.532Z,264
2017-09-04T05:56:42.516Z,268
2017-09-04T05:57:42.847Z,272
2017-09-04T05:58:42.569Z,268
2017-09-04T05:59:44.521Z,272
2017-09-04T06:00:42.902Z,276
2017-09-04T06:01:42.925Z,272
2017-09-04T06:02:42.948Z,276
2017-09-04T06:03:42.958Z,280
2017-09-04T06:04:42.980Z,280
2017-09-04T06:05:42.763Z,284
2017-09-04T06:06:43.019Z,280
2017-09-04T06:07:43.053Z,284
2017-09-04T06:08:42.467Z,284
2017-09-04T06:09:43.074Z,288
2017-09-04T06:10:43.089Z,288
2017-09-04T06:11:42.784Z,288
2017-09-04T06:12:43.449Z,292
2017-09-04T06:13:43.186Z,292
2017-09-04T06:14:43.202Z,292
2017-09-04T06:15:42.861Z,292
2017-09-04T06:16:43.197Z,296
2017-09-04T06:17:42.627Z,300
2017-09-04T06:18:43.238Z,296
2017-09-04T06:19:42.636Z,300
2017-09-04T06:20:43.050Z,300
2017-09-04T06:21:43.291Z,304
2017-09-04T06:22:43.308Z,304
2017-09-04T06:23:43.006Z,308
2017-09-04T06:24:43.364Z,308
2017-09-04T06:25:43.363Z,308
2017-09-04T06:26:43.065Z,308
2017-09-04T06:27:43.734Z,308
2017-09-04T06:28:43.126Z,312
2017-09-04T06:29:43.443Z,308
2017-09-04T06:30:43.781Z,312
2017-09-04T06:31:43.479Z,312
2017-09-04T06:32:43.169Z,312
2017-09-04T06:33:43.838Z,316
2017-09-04T06:34:43.208Z,316
2017-09-04T06:35:43.229Z,316
2017-09-04T06:36:43.565Z,316
2017-09-04T06:37:43.261Z,320
2017-09-04T06:38:44.170Z,320
2017-09-04T06:39:43.631Z,320
2017-09-04T06:40:43.966Z,320
2017-09-04T06:41:43.661Z,324
2017-09-04T06:42:44.004Z,324
2017-09-04T06:43:43.698Z,328
2017-09-04T06:44:44.048Z,324
2017-09-04T06:45:43.415Z,328
2017-09-04T06:46:43.758Z,328
2017-09-04T06:47:43.125Z,328
2017-09-04T06:48:43.471Z,328
2017-09-04T06:49:44.137Z,332
2017-09-04T06:50:43.534Z,332
2017-09-04T06:51:43.529Z,332
2017-09-04T06:52:43.867Z,336
2017-09-04T06:53:43.882Z,336
2017-09-04T06:54:43.580Z,336
2017-09-04T06:55:44.145Z,340
2017-09-04T06:56:43.938Z,340
2017-09-04T06:57:43.953Z,340
2017-09-04T06:58:43.978Z,344
2017-09-04T06:59:43.364Z,340
2017-09-04T07:00:43.698Z,340
2017-09-04T07:01:44.034Z,344
2017-09-04T07:02:43.413Z,348
2017-09-04T07:03:44.455Z,344
2017-09-04T07:04:44.091Z,348
2017-09-04T07:05:44.108Z,344
2017-09-04T07:06:43.802Z,348
2017-09-04T07:07:44.264Z,348
2017-09-04T07:08:44.272Z,348
2017-09-04T07:09:44.279Z,348
2017-09-04T07:10:44.309Z,352
2017-09-04T07:11:43.902Z,352
2017-09-04T07:12:43.819Z,352
2017-09-04T07:13:43.933Z,356
2017-09-04T07:14:43.955Z,356
2017-09-04T07:15:44.816Z,356
2017-09-04T07:16:44.438Z,360
2017-09-04T07:17:44.008Z,356
2017-09-04T07:18:44.032Z,360
2017-09-04T07:19:44.045Z,360
2017-09-04T07:20:44.860Z,360
2017-09-04T07:21:44.473Z,360
2017-09-04T07:22:44.878Z,360
2017-09-04T07:23:44.570Z,360
2017-09-04T07:24:44.895Z,360
2017-09-04T07:25:44.257Z,360
2017-09-04T07:26:44.599Z,364
2017-09-04T07:27:44.312Z,364
2017-09-04T07:28:44.635Z,364
2017-09-04T07:29:44.710Z,368
2017-09-04T07:30:44.760Z,368
2017-09-04T07:31:44.575Z,368
2017-09-04T07:32:44.409Z,368
2017-09-04T07:33:44.736Z,372
2017-09-04T07:34:44.440Z,376
2017-09-04T07:35:44.876Z,372
2017-09-04T07:36:45.017Z,376
2017-09-04T07:37:44.464Z,376
2017-09-04T07:38:44.731Z,380
2017-09-04T07:39:44.602Z,376
2017-09-04T07:40:44.541Z,380
2017-09-04T07:41:45.126Z,384
2017-09-04T07:42:44.810Z,380
2017-09-04T07:43:44.912Z,384
2017-09-04T07:44:45.172Z,384
2017-09-04T07:45:44.448Z,384
2017-09-04T07:46:44.718Z,388
2017-09-04T07:47:44.412Z,388
2017-09-04T07:48:44.946Z,388
2017-09-04T07:49:44.746Z,388
2017-09-04T07:50:44.641Z,392
2017-09-04T07:51:44.506Z,392
2017-09-04T07:52:45.019Z,396
2017-09-04T07:53:45.415Z,392
2017-09-04T07:54:44.850Z,396
2017-09-04T07:55:44.738Z,396
2017-09-04T07:56:45.398Z,400
2017-09-04T07:57:44.876Z,400
2017-09-04T07:58:45.441Z,404
2017-09-04T07:59:44.639Z,404
2017-09-04T08:00:44.837Z,404
2017-09-04T08:01:45.192Z,404
2017-09-04T08:02:45.190Z,404
2017-09-04T08:03:45.541Z,404
2017-09-04T08:04:45.555Z,404
2017-09-04T08:05:44.978Z,408
2017-09-04T08:06:44.964Z,412
2017-09-04T08:07:45.295Z,408
2017-09-04T08:08:45.321Z,412
2017-09-04T08:09:45.014Z,412
2017-09-04T08:10:45.352Z,416
2017-09-04T08:11:45.048Z,416
2017-09-04T08:12:44.748Z,420
2017-09-04T08:13:45.087Z,420
2017-09-04T08:14:45.115Z,420
2017-09-04T08:15:44.806Z,424
2017-09-04T08:16:45.157Z,424
2017-09-04T08:17:45.490Z,428
2017-09-04T08:18:45.507Z,428
2017-09-04T08:19:45.530Z,428
2017-09-04T08:20:45.554Z,428
2017-09-04T08:21:45.572Z,436
2017-09-04T08:22:45.915Z,440
2017-09-04T08:23:45.284Z,440
2017-09-04T08:24:45.946Z,444
2017-09-04T08:25:45.979Z,452
2017-09-04T08:26:45.671Z,456
2017-09-04T08:27:45.049Z,460
2017-09-04T08:28:45.711Z,464
2017-09-04T08:29:45.421Z,464
2017-09-04T08:30:45.755Z,468
2017-09-04T08:31:45.449Z,476
2017-09-04T08:32:45.469Z,480
2017-09-04T08:33:45.491Z,484
2017-09-04T08:34:45.505Z,492
2017-09-04T08:35:45.525Z,492
2017-09-04T08:36:46.088Z,500
2017-09-04T08:37:45.575Z,504
2017-09-04T08:38:45.591Z,512
2017-09-04T08:39:45.930Z,516
2017-09-04T08:40:45.318Z,520
2017-09-04T08:41:45.341Z,520
2017-09-04T08:42:45.351Z,520
2017-09-04T08:43:46.024Z,528
2017-09-04T08:44:46.040Z,528
2017-09-04T08:45:45.734Z,528
2017-09-04T08:46:45.757Z,528
2017-09-04T08:47:45.771Z,536
2017-09-04T08:48:45.468Z,544
2017-09-04T08:49:45.817Z,548
2017-09-04T08:50:46.163Z,556
2017-09-04T08:51:46.179Z,564
2017-09-04T08:52:45.878Z,572
2017-09-04T08:53:45.902Z,576
2017-09-04T08:54:45.919Z,576
2017-09-04T08:55:45.939Z,580
2017-09-04T08:56:46.301Z,588
2017-09-04T08:57:45.661Z,596
2017-09-04T08:58:46.002Z,604
2017-09-04T08:59:46.035Z,616
2017-09-04T09:00:46.039Z,620
2017-09-04T09:01:46.071Z,624
2017-09-04T09:02:46.415Z,628
2017-09-04T09:03:45.785Z,640
2017-09-04T09:04:46.185Z,648
2017-09-04T09:05:46.907Z,656
2017-09-04T09:06:46.607Z,664
2017-09-04T09:07:46.602Z,672
2017-09-04T09:08:46.736Z,680
2017-09-04T09:09:47.062Z,684
2017-09-04T09:10:46.292Z,692
2017-09-04T09:11:46.367Z,704
2017-09-04T09:12:46.297Z,712
2017-09-04T09:13:46.318Z,716
2017-09-04T09:14:46.018Z,720
2017-09-04T09:15:46.043Z,724
2017-09-04T09:16:46.471Z,728
2017-09-04T09:17:46.939Z,744
2017-09-04T09:18:46.438Z,748
2017-09-04T09:19:47.272Z,748
2017-09-04T09:20:46.248Z,748
2017-09-04T09:21:46.902Z,748
2017-09-04T09:22:46.923Z,752
2017-09-04T09:23:47.262Z,760
2017-09-04T09:24:46.944Z,768
2017-09-04T09:25:47.278Z,772
2017-09-04T09:26:46.632Z,772
2017-09-04T09:27:47.298Z,780
2017-09-04T09:28:47.296Z,788
2017-09-04T09:29:46.661Z,800
2017-09-04T09:30:47.328Z,804
2017-09-04T09:31:47.349Z,804
2017-09-04T09:32:46.927Z,816
2017-09-04T09:33:47.069Z,828
2017-09-04T09:34:47.094Z,840
2017-09-04T09:35:46.793Z,848
2017-09-04T09:36:46.575Z,852
2017-09-04T09:37:47.228Z,856
2017-09-04T09:38:47.260Z,864
2017-09-04T09:39:46.953Z,872
2017-09-04T09:40:47.229Z,872
2017-09-04T09:41:47.246Z,880
2017-09-04T09:42:47.301Z,888
2017-09-04T09:43:47.615Z,892
2017-09-04T09:44:47.000Z,900
2017-09-04T09:45:46.689Z,916
2017-09-04T09:46:47.692Z,920
2017-09-04T09:47:47.054Z,916
2017-09-04T09:48:47.075Z,916
2017-09-04T09:49:47.417Z,928
2017-09-04T09:50:47.766Z,940
2017-09-04T09:51:46.820Z,960
2017-09-04T09:52:47.489Z,968
2017-09-04T09:53:47.514Z,980
2017-09-04T09:54:47.211Z,988
2017-09-04T09:55:46.909Z,996
2017-09-04T09:56:47.588Z,1012
2017-09-04T09:57:47.929Z,1016
2017-09-04T09:58:47.947Z,1028
2017-09-04T09:59:47.459Z,1036
2017-09-04T10:00:47.998Z,1048
2017-09-04T10:01:47.691Z,1072
2017-09-04T10:02:47.399Z,1080
2017-09-04T10:03:47.411Z,1080
2017-09-04T10:04:47.773Z,1072
2017-09-04T10:05:48.104Z,1080
2017-09-04T10:06:47.805Z,1080
2017-09-04T10:07:47.507Z,1080
2017-09-04T10:08:47.530Z,1100
2017-09-04T10:09:47.878Z,1132
2017-09-04T10:10:47.928Z,1160
2017-09-04T10:11:47.920Z,1176
2017-09-04T10:12:47.942Z,1180
2017-09-04T10:13:47.960Z,1180
2017-09-04T10:14:47.669Z,1180
2017-09-04T10:15:48.372Z,1188
2017-09-04T10:16:48.359Z,1176
2017-09-04T10:17:48.059Z,1064
2017-09-04T10:18:48.403Z,732
2017-09-04T10:19:47.457Z,772
2017-09-04T10:20:48.141Z,1348
2017-09-04T10:21:47.830Z,1504
2017-09-04T10:22:47.848Z,1400
2017-09-04T10:23:48.533Z,1340
2017-09-04T10:24:47.902Z,1424
2017-09-04T10:25:48.246Z,1532
2017-09-04T10:26:48.591Z,1132
2017-09-04T10:27:47.971Z,1584
2017-09-04T10:28:47.989Z,1460
2017-09-04T10:29:48.336Z,1472
2017-09-04T10:30:48.363Z,1556
2017-09-04T10:31:48.388Z,1604
2017-09-04T10:32:48.413Z,1564
2017-09-04T10:33:48.467Z,1624
2017-09-04T10:34:48.130Z,1756
2017-09-04T10:35:48.159Z,1976
2017-09-04T10:36:48.177Z,2044
2017-09-04T10:37:48.537Z,1692
2017-09-04T10:38:48.667Z,1400
2017-09-04T10:39:48.246Z,1360
2017-09-04T10:40:48.332Z,1340
2017-09-04T10:41:48.339Z,1340
2017-09-04T10:42:48.987Z,1340
2017-09-04T10:43:48.672Z,1340
2017-09-04T10:44:48.809Z,1344
2017-09-04T10:45:48.395Z,1356
2017-09-04T10:46:49.155Z,1364
2017-09-04T10:47:49.186Z,1380
2017-09-04T10:48:48.874Z,1380
2017-09-04T10:49:48.937Z,1380
2017-09-04T10:50:48.981Z,1368
2017-09-04T10:51:49.098Z,1372
2017-09-04T10:52:49.212Z,1392
2017-09-04T10:53:48.916Z,1428
2017-09-04T10:54:48.613Z,1444
2017-09-04T10:55:48.966Z,1452
2017-09-04T10:56:48.861Z,1456
2017-09-04T10:57:48.688Z,1440
2017-09-04T10:58:49.028Z,1436
2017-09-04T10:59:49.378Z,1444
2017-09-04T11:00:48.759Z,1480
2017-09-04T11:01:48.786Z,1472
2017-09-04T11:02:49.131Z,1496
2017-09-04T11:03:49.158Z,1592
2017-09-04T11:04:49.181Z,1552
2017-09-04T11:05:49.219Z,1356
2017-09-04T11:06:49.643Z,2000
2017-09-04T11:07:48.932Z,2100
2017-09-04T11:08:49.280Z,1848
2017-09-04T11:09:49.300Z,1720
2017-09-04T11:10:49.330Z,1820
2017-09-04T11:11:49.448Z,1872
2017-09-04T11:12:49.484Z,1696
2017-09-04T11:13:49.935Z,1528
2017-09-04T11:14:48.785Z,1536
2017-09-04T11:15:49.158Z,1568
2017-09-04T11:16:49.483Z,1592
2017-09-04T11:17:48.859Z,1636
2017-09-04T11:18:48.883Z,1680
2017-09-04T11:19:50.074Z,1764
2017-09-04T11:20:49.252Z,1788
2017-09-04T11:21:49.644Z,1724
2017-09-04T11:22:49.429Z,1648
2017-09-04T11:23:49.771Z,1616
2017-09-04T11:24:49.128Z,1616
2017-09-04T11:25:50.130Z,1628
2017-09-04T11:26:49.625Z,1636
2017-09-04T11:27:49.951Z,1616
2017-09-04T11:28:49.628Z,1596
2017-09-04T11:29:49.634Z,1612
2017-09-04T11:30:49.313Z,1668
2017-09-04T11:31:49.623Z,1760
2017-09-04T11:32:50.082Z,2004
2017-09-04T11:33:49.784Z,2392
2017-09-04T11:34:50.088Z,2704
2017-09-04T11:35:49.958Z,2896
2017-09-04T11:36:50.079Z,3048
2017-09-04T11:37:50.004Z,3280
2017-09-04T11:38:49.810Z,3184
2017-09-04T11:39:49.807Z,3004
2017-09-04T11:40:50.088Z,2748
2017-09-04T11:41:50.429Z,2480
2017-09-04T11:42:50.159Z,2292
2017-09-04T11:43:49.838Z,2248
2017-09-04T11:44:50.184Z,1912
2017-09-04T11:45:50.089Z,1724
2017-09-04T11:46:49.916Z,1536
2017-09-04T11:47:50.276Z,1424
2017-09-04T11:48:50.292Z,1340
2017-09-04T11:49:50.315Z,1300
2017-09-04T11:50:50.670Z,1280
2017-09-04T11:51:50.055Z,1236
2017-09-04T11:52:50.069Z,1240
2017-09-04T11:53:50.444Z,1288
2017-09-04T11:54:50.774Z,1296
2017-09-04T11:55:50.475Z,1252
2017-09-04T11:56:50.506Z,1212
2017-09-04T11:57:50.206Z,1160
2017-09-04T11:58:50.233Z,1088
2017-09-04T11:59:50.925Z,1000
2017-09-04T12:00:50.927Z,940
2017-09-04T12:01:50.627Z,900
2017-09-04T12:02:50.659Z,864
2017-09-04T12:03:50.362Z,876
2017-09-04T12:04:50.715Z,896
2017-09-04T12:05:50.422Z,908
2017-09-04T12:06:51.104Z,892
2017-09-04T12:07:50.812Z,856
2017-09-04T12:08:50.492Z,844
2017-09-04T12:09:50.516Z,872
2017-09-04T12:10:51.185Z,924
2017-09-04T12:11:51.220Z,1000
2017-09-04T12:12:50.925Z,1052
2017-09-04T12:13:50.974Z,1052
2017-09-04T12:14:51.296Z,1036
2017-09-04T12:15:50.355Z,1032
2017-09-04T12:16:51.025Z,1072
2017-09-04T12:17:51.058Z,1152
2017-09-04T12:18:51.406Z,1276
2017-09-04T12:19:51.423Z,1428
2017-09-04T12:20:51.136Z,1604
2017-09-04T12:21:51.482Z,1816
2017-09-04T12:22:51.191Z,1980
2017-09-04T12:23:50.891Z,2060
2017-09-04T12:24:51.558Z,2136
2017-09-04T12:25:51.265Z,1976
2017-09-04T12:26:51.295Z,1648
2017-09-04T12:27:51.648Z,1328
2017-09-04T12:28:51.056Z,1284
2017-09-04T12:29:50.731Z,1276
2017-09-04T12:30:51.399Z,1228
2017-09-04T12:31:51.420Z,1408
2017-09-04T12:32:51.448Z,1384
2017-09-04T12:33:51.583Z,1300
2017-09-04T12:34:51.181Z,1480
2017-09-04T12:35:51.533Z,1244
2017-09-04T12:36:51.238Z,1272
2017-09-04T12:37:51.608Z,1316
2017-09-04T12:38:51.284Z,1480
2017-09-04T12:39:51.746Z,1464
2017-09-04T12:40:51.663Z,1456
2017-09-04T12:41:51.487Z,1448
2017-09-04T12:42:51.492Z,1440
2017-09-04T12:43:51.955Z,1412
2017-09-04T12:44:51.962Z,1376
2017-09-04T12:45:51.644Z,1340
2017-09-04T12:46:51.959Z,1320
2017-09-04T12:47:52.295Z,1312
2017-09-04T12:48:51.649Z,1316
2017-09-04T12:49:52.427Z,1312
2017-09-04T12:50:52.130Z,1312
2017-09-04T12:51:51.787Z,1300
2017-09-04T12:52:51.788Z,1292
2017-09-04T12:53:52.119Z,1276
2017-09-04T12:54:52.114Z,1264
2017-09-04T12:55:51.831Z,1256
2017-09-04T12:56:52.178Z,1244
2017-09-04T12:57:52.178Z,1064
2017-09-04T12:58:51.852Z,1036
2017-09-04T12:59:51.856Z,1044
2017-09-04T13:00:51.882Z,1256
2017-09-04T13:01:51.895Z,1276
2017-09-04T13:02:52.574Z,1284
2017-09-04T13:03:51.631Z,1276
2017-09-04T13:04:52.620Z,1264
2017-09-04T13:05:52.013Z,1268
2017-09-04T13:06:52.362Z,1260
2017-09-04T13:07:52.578Z,1248
2017-09-04T13:08:52.726Z,1248
2017-09-04T13:09:52.109Z,1236
2017-09-04T13:10:52.461Z,1232
2017-09-04T13:11:52.162Z,1260
2017-09-04T13:12:52.514Z,1316
2017-09-04T13:13:52.218Z,1404
2017-09-04T13:14:52.563Z,1460
2017-09-04T13:15:52.591Z,1404
2017-09-04T13:16:52.297Z,1252
2017-09-04T13:17:52.644Z,1220
2017-09-04T13:18:52.355Z,1216
2017-09-04T13:19:53.175Z,1240
2017-09-04T13:20:52.727Z,1336
2017-09-04T13:21:52.753Z,1472
2017-09-04T13:22:52.789Z,1540
2017-09-04T13:23:53.162Z,1440
2017-09-04T13:24:52.512Z,1356
2017-09-04T13:25:52.861Z,1352
2017-09-04T13:26:52.890Z,1344
2017-09-04T13:27:52.917Z,1344
2017-09-04T13:28:52.617Z,1368
2017-09-04T13:29:52.647Z,1412
2017-09-04T13:30:52.675Z,1412
2017-09-04T13:31:53.225Z,1412
2017-09-04T13:32:52.727Z,1412
2017-09-04T13:33:53.077Z,1436
2017-09-04T13:34:53.429Z,1464
2017-09-04T13:35:53.133Z,1492
2017-09-04T13:36:53.159Z,1468
2017-09-04T13:37:52.899Z,1504
2017-09-04T13:38:53.539Z,1480
2017-09-04T13:39:53.562Z,1504
2017-09-04T13:40:53.260Z,1668
2017-09-04T13:41:52.969Z,1908
2017-09-04T13:42:53.002Z,2152
2017-09-04T13:43:53.020Z,1900
2017-09-04T13:44:53.052Z,1456
2017-09-04T13:45:53.409Z,1200
2017-09-04T13:46:53.107Z,1192
2017-09-04T13:47:53.780Z,1516
2017-09-04T13:48:53.167Z,1560
2017-09-04T13:49:53.190Z,1576
2017-09-04T13:50:53.859Z,1724
2017-09-04T13:51:53.249Z,1904
2017-09-04T13:52:53.605Z,2104
2017-09-04T13:53:53.626Z,2372
2017-09-04T13:54:53.651Z,2656
2017-09-04T13:55:53.675Z,2416
2017-09-04T13:56:53.701Z,2404
2017-09-04T13:57:53.740Z,2228